Pagrindinis puslapis
METAR-TAF:

METAR-TAF

Oro uostai :

Tokatas, Turkija

platuma: 40-18N, ilguma: 036-34E, Aukštis: 608 m

METAR: trūkstamas

Laikas: 21:00 (18:00 UTC)

Prognozė

Ataskaita buvo paskelbta 4 valandos ir 20 minutes, ne 13:40 UTC
Prognozė galioja nuo 15 metu 15 UTC su 15 metu 24 UTC
Vėjas 9 kt iš Rytų
Matomumas 10 km arba daugiau
Mažai debesys ne aukštis 3000 ft, Liūtiniai kamuoliniai debesys.
Su prošvaistėmis ne aukštis 3500 ft
lietus
Tapsmas
nuo 15 metu 17 UTC su 15 metu 20 UTC
Išsisklaidę debesys ne aukštis 4000 ft
Su prošvaistėmis ne aukštis 10000 ft

TAF: LTAW 151340Z 1515/1524 08009KT 9999 -SHRA FEW030CB BKN035 BECMG 1517/1520 SCT040 BKN100

Orai ataskaitas ir orų prognozės (METAR, TAF).

turimą stotys yra geltonos ir raudonos taškus žemėlapyje.

Perkelti pele per norėdami pamatyti stoties vardą.

Tada spustelėkite, norėdami matyti oro stebėjimo ir prognozės.

Norėdami pakeisti žemėlapį: spustelėkite ant žalios mygtukų su juodo kryžiaus žemyn,; žalią mygtuką su brūkšneliu, jei norite nutolinti; arba žalių rodyklių gretimoms žemėlapius.


METAR-TAF: